createdAt,value
2023-05-09T00:00:05.683Z,68.38
2023-05-09T00:02:32.522Z,68.53
2023-05-09T00:04:59.335Z,68.47
2023-05-09T00:07:25.875Z,68.44
2023-05-09T00:09:53.956Z,67.99
2023-05-09T00:12:21.864Z,67.92
2023-05-09T00:14:48.391Z,68.12
2023-05-09T00:17:14.982Z,67.99
2023-05-09T00:19:41.559Z,68.07
2023-05-09T00:22:08.134Z,67.74
2023-05-09T00:24:35.028Z,67.84
2023-05-09T00:27:03.043Z,68.26
2023-05-09T00:29:29.770Z,68.45
2023-05-09T00:31:56.370Z,68.65
2023-05-09T00:34:23.058Z,68.14
2023-05-09T00:36:49.610Z,68.31
2023-05-09T00:39:16.207Z,69.06
2023-05-09T00:41:43.778Z,69.00
2023-05-09T00:44:11.760Z,68.75
2023-05-09T00:46:38.641Z,69.28
2023-05-09T00:49:05.547Z,69.18
2023-05-09T00:51:32.995Z,69.17
2023-05-09T00:53:59.581Z,68.77
2023-05-09T00:56:26.143Z,68.80
2023-05-09T00:58:52.766Z,69.06
2023-05-09T01:01:21.004Z,69.53
2023-05-09T01:03:47.874Z,70.03
2023-05-09T01:06:22.622Z,69.39
2023-05-09T01:08:57.676Z,69.72
2023-05-09T01:11:31.401Z,69.53
2023-05-09T01:14:07.865Z,69.69
2023-05-09T01:16:41.334Z,69.52
2023-05-09T01:19:27.486Z,69.43
2023-05-09T01:21:56.320Z,69.51
2023-05-09T01:24:45.657Z,69.92
2023-05-09T01:27:28.564Z,70.05
2023-05-09T01:29:57.902Z,70.12
2023-05-09T01:32:26.691Z,70.20
2023-05-09T01:34:56.421Z,70.44
2023-05-09T01:37:29.914Z,70.65
2023-05-09T01:39:59.941Z,70.62
2023-05-09T01:42:30.458Z,70.88
2023-05-09T01:44:59.304Z,70.42
2023-05-09T01:47:27.034Z,70.26
2023-05-09T01:49:55.114Z,70.35
2023-05-09T01:52:23.611Z,70.15
2023-05-09T01:54:51.312Z,69.85
2023-05-09T01:57:19.819Z,69.53
2023-05-09T01:59:48.595Z,69.40
2023-05-09T02:02:17.275Z,68.96
2023-05-09T02:04:45.155Z,69.16
2023-05-09T02:07:12.749Z,69.77
2023-05-09T02:09:39.430Z,70.06
2023-05-09T02:12:06.761Z,69.64
2023-05-09T02:14:33.353Z,69.49
2023-05-09T02:17:00.898Z,69.22
2023-05-09T02:19:28.972Z,68.98
2023-05-09T02:21:55.667Z,68.83
2023-05-09T02:24:22.228Z,68.44
2023-05-09T02:26:49.037Z,68.66
2023-05-09T02:29:19.603Z,68.49
2023-05-09T02:31:48.577Z,68.79
2023-05-09T02:34:16.663Z,68.73
2023-05-09T02:36:45.314Z,68.57
2023-05-09T02:39:12.351Z,68.59
2023-05-09T02:41:38.889Z,69.05
2023-05-09T02:44:05.544Z,69.29
2023-05-09T02:46:32.226Z,69.31
2023-05-09T02:48:59.348Z,68.97
2023-05-09T02:51:25.784Z,68.71
2023-05-09T02:53:53.783Z,68.55
2023-05-09T02:56:20.274Z,68.29
2023-05-09T02:58:46.782Z,68.19
2023-05-09T03:01:13.387Z,68.25
2023-05-09T03:03:40.067Z,68.38
2023-05-09T03:06:07.529Z,69.21
2023-05-09T03:08:34.076Z,68.65
2023-05-09T03:11:02.026Z,69.07
2023-05-09T03:13:28.783Z,69.16
2023-05-09T03:15:55.398Z,68.75
2023-05-09T03:18:21.993Z,68.54
2023-05-09T03:20:48.685Z,68.59
2023-05-09T03:23:15.260Z,68.37
2023-05-09T03:25:41.858Z,68.39
2023-05-09T03:28:09.694Z,68.20
2023-05-09T03:30:36.229Z,68.48
2023-05-09T03:33:02.808Z,68.34
2023-05-09T03:35:29.334Z,67.96
2023-05-09T03:37:56.089Z,67.92
2023-05-09T03:40:22.668Z,67.74
2023-05-09T03:42:49.232Z,68.06
2023-05-09T03:45:17.201Z,68.14
2023-05-09T03:47:43.722Z,68.17
2023-05-09T03:50:10.719Z,68.27
2023-05-09T03:52:37.261Z,68.21
2023-05-09T03:55:04.206Z,68.66
2023-05-09T03:57:30.847Z,67.99
2023-05-09T03:59:57.426Z,68.31
2023-05-09T04:02:25.751Z,68.25
2023-05-09T04:04:52.564Z,67.86
2023-05-09T04:07:19.518Z,67.95
2023-05-09T04:09:46.299Z,68.69
2023-05-09T04:12:12.924Z,68.35
2023-05-09T04:14:39.486Z,68.07
2023-05-09T04:17:06.147Z,68.47
2023-05-09T04:19:34.186Z,68.21
2023-05-09T04:22:00.596Z,68.16
2023-05-09T04:24:27.152Z,68.22
2023-05-09T04:26:53.791Z,67.77
2023-05-09T04:29:20.305Z,68.16
2023-05-09T04:31:46.946Z,67.54
2023-05-09T04:34:13.616Z,67.76
2023-05-09T04:36:41.667Z,67.62
2023-05-09T04:39:08.319Z,67.18
2023-05-09T04:41:34.961Z,67.07
2023-05-09T04:44:01.663Z,67.38
2023-05-09T04:46:28.237Z,66.94
2023-05-09T04:48:54.976Z,66.89
2023-05-09T04:51:21.495Z,66.81
2023-05-09T04:53:49.392Z,66.56
2023-05-09T04:56:16.030Z,66.79
2023-05-09T04:58:42.583Z,66.07
2023-05-09T05:01:09.359Z,66.46
2023-05-09T05:03:35.924Z,66.69
2023-05-09T05:06:02.586Z,66.17
2023-05-09T05:08:29.236Z,65.75
2023-05-09T05:10:57.387Z,65.57
2023-05-09T05:13:24.640Z,65.46
2023-05-09T05:15:51.334Z,65.43
2023-05-09T05:18:18.197Z,64.94
2023-05-09T05:20:44.774Z,64.76
2023-05-09T05:23:11.339Z,64.70
2023-05-09T05:25:38.299Z,64.35
2023-05-09T05:28:06.364Z,63.43
2023-05-09T05:30:34.318Z,63.56
2023-05-09T05:33:01.311Z,63.10
2023-05-09T05:35:28.044Z,63.49
2023-05-09T05:37:54.690Z,63.09
2023-05-09T05:40:21.265Z,62.92
2023-05-09T05:42:47.855Z,62.53
2023-05-09T05:45:16.287Z,62.34
2023-05-09T05:47:43.118Z,62.11
2023-05-09T05:50:10.317Z,60.59
2023-05-09T05:52:36.756Z,58.82
2023-05-09T05:55:03.729Z,57.48
2023-05-09T05:57:30.411Z,57.47
2023-05-09T05:59:57.004Z,57.31
2023-05-09T06:02:25.037Z,57.78
2023-05-09T06:04:53.308Z,57.24
2023-05-09T06:07:20.507Z,56.46
2023-05-09T06:09:47.243Z,55.82
2023-05-09T06:12:13.862Z,55.86
2023-05-09T06:14:40.449Z,56.43
2023-05-09T06:17:07.211Z,55.50
2023-05-09T06:19:35.109Z,53.64
2023-05-09T06:22:01.685Z,51.29
2023-05-09T06:24:35.765Z,50.44
2023-05-09T06:27:03.875Z,49.61
2023-05-09T06:29:30.450Z,48.83
2023-05-09T06:31:57.152Z,48.00
2023-05-09T06:34:23.728Z,47.02
2023-05-09T06:36:51.848Z,46.36
2023-05-09T06:39:18.522Z,45.68
2023-05-09T06:41:45.182Z,45.88
2023-05-09T06:44:11.813Z,45.84
2023-05-09T06:46:38.413Z,46.00
2023-05-09T06:49:05.203Z,45.75
2023-05-09T06:51:33.833Z,44.52
2023-05-09T06:54:01.722Z,45.07
2023-05-09T06:56:28.398Z,45.45
2023-05-09T06:58:55.108Z,46.23
2023-05-09T07:01:21.654Z,46.31
2023-05-09T07:03:48.340Z,47.72
2023-05-09T07:06:14.918Z,47.65
2023-05-09T07:08:41.486Z,48.83
2023-05-09T07:11:12.486Z,48.50
2023-05-09T07:13:39.037Z,48.91
2023-05-09T07:16:06.419Z,48.34
2023-05-09T07:18:33.124Z,47.78
2023-05-09T07:20:59.720Z,47.41
2023-05-09T07:23:26.344Z,47.28
2023-05-09T07:25:56.543Z,47.12
2023-05-09T07:28:24.836Z,46.59
2023-05-09T07:30:51.606Z,46.48
2023-05-09T07:33:18.181Z,46.46
2023-05-09T07:35:44.697Z,47.08
2023-05-09T07:38:11.367Z,46.44
2023-05-09T07:40:37.918Z,45.77
2023-05-09T07:43:04.643Z,45.53
2023-05-09T07:45:32.818Z,44.91
2023-05-09T07:47:59.473Z,45.73
2023-05-09T07:50:26.101Z,45.12
2023-05-09T07:52:52.764Z,45.78
2023-05-09T07:55:19.616Z,46.39
2023-05-09T07:57:46.168Z,45.39
2023-05-09T08:00:14.266Z,45.42
2023-05-09T08:02:42.341Z,44.66
2023-05-09T08:05:09.625Z,44.80
2023-05-09T08:07:36.178Z,45.38
2023-05-09T08:10:03.024Z,45.84
2023-05-09T08:12:29.601Z,45.19
2023-05-09T08:14:56.196Z,45.45
2023-05-09T08:17:22.793Z,45.88
2023-05-09T08:19:50.763Z,45.77
2023-05-09T08:22:17.516Z,44.84
2023-05-09T08:24:44.177Z,44.17
2023-05-09T08:27:10.822Z,42.66
2023-05-09T08:29:37.373Z,42.45
2023-05-09T08:32:04.416Z,41.87
2023-05-09T08:34:31.148Z,41.29
2023-05-09T08:36:59.123Z,41.13
2023-05-09T08:39:25.790Z,41.40
2023-05-09T08:41:56.623Z,39.44
2023-05-09T08:44:23.483Z,39.08
2023-05-09T08:46:52.798Z,38.68
2023-05-09T08:49:21.143Z,37.39
2023-05-09T08:51:48.464Z,37.79
2023-05-09T08:54:17.010Z,36.91
2023-05-09T08:56:43.896Z,36.24
2023-05-09T08:59:10.541Z,36.21
2023-05-09T09:01:37.298Z,36.11
2023-05-09T09:04:06.091Z,35.24
2023-05-09T09:06:33.629Z,34.50
2023-05-09T09:09:01.352Z,35.44
2023-05-09T09:11:30.236Z,35.20
2023-05-09T09:14:00.984Z,34.73
2023-05-09T09:16:29.202Z,34.54
2023-05-09T09:18:58.514Z,33.70
2023-05-09T09:21:25.868Z,34.39
2023-05-09T09:23:55.010Z,34.76
2023-05-09T09:26:21.638Z,35.12
2023-05-09T09:28:49.609Z,35.08
2023-05-09T09:31:20.178Z,34.39
2023-05-09T09:33:46.898Z,34.47
2023-05-09T09:36:13.613Z,34.27
2023-05-09T09:38:41.103Z,34.02
2023-05-09T09:41:07.725Z,33.39
2023-05-09T09:43:34.336Z,33.66
2023-05-09T09:46:03.456Z,33.62
2023-05-09T09:48:32.068Z,33.07
2023-05-09T09:51:03.947Z,33.19
2023-05-09T09:53:30.562Z,33.39
2023-05-09T09:55:57.425Z,33.98
2023-05-09T09:58:24.203Z,34.16
2023-05-09T10:01:06.357Z,33.85
2023-05-09T10:03:36.843Z,33.45
2023-05-09T10:06:03.799Z,33.23
2023-05-09T10:08:30.409Z,33.87
2023-05-09T10:10:59.478Z,33.84
2023-05-09T10:13:26.693Z,33.27
2023-05-09T10:15:54.551Z,33.07
2023-05-09T10:18:27.097Z,32.10
2023-05-09T10:20:54.563Z,31.93
2023-05-09T10:23:22.896Z,31.97
2023-05-09T10:25:54.663Z,31.63
2023-05-09T10:28:26.291Z,32.26
2023-05-09T10:30:59.597Z,31.31
2023-05-09T10:33:37.767Z,31.31
2023-05-09T10:36:06.311Z,30.64
2023-05-09T10:38:33.315Z,30.74
2023-05-09T10:41:00.918Z,31.42
2023-05-09T10:43:27.977Z,32.13
2023-05-09T10:45:55.059Z,32.16
2023-05-09T10:48:22.740Z,31.91
2023-05-09T10:50:51.157Z,32.09
2023-05-09T10:53:17.708Z,32.60
2023-05-09T10:55:52.952Z,31.98
2023-05-09T10:58:22.585Z,31.72
2023-05-09T11:00:51.176Z,31.53
2023-05-09T11:03:18.111Z,30.67
2023-05-09T11:05:45.327Z,31.61
2023-05-09T11:08:20.646Z,33.25
2023-05-09T11:10:47.851Z,32.35
2023-05-09T11:13:18.749Z,32.80
2023-05-09T11:16:10.913Z,33.37
2023-05-09T11:18:51.034Z,32.49
2023-05-09T11:21:17.772Z,32.46
2023-05-09T11:23:45.911Z,31.77
2023-05-09T11:26:14.956Z,31.89
2023-05-09T11:29:09.920Z,32.62
2023-05-09T11:32:06.270Z,32.13
2023-05-09T11:34:33.572Z,31.39
2023-05-09T11:37:09.164Z,31.24
2023-05-09T11:39:55.790Z,31.30
2023-05-09T11:42:23.548Z,31.04
2023-05-09T11:44:51.069Z,31.15
2023-05-09T11:47:17.993Z,32.22
2023-05-09T11:49:44.802Z,31.57
2023-05-09T11:52:11.521Z,30.29
2023-05-09T11:54:39.682Z,29.95
2023-05-09T11:57:06.740Z,30.14
2023-05-09T11:59:33.711Z,29.93
2023-05-09T12:02:05.889Z,30.47
2023-05-09T12:04:33.322Z,30.46
2023-05-09T12:07:00.207Z,30.99
2023-05-09T12:09:30.296Z,32.16
2023-05-09T12:11:58.435Z,31.58
2023-05-09T12:14:29.018Z,32.45
2023-05-09T12:16:55.597Z,32.10
2023-05-09T12:19:23.404Z,32.07
2023-05-09T12:21:55.268Z,31.87
2023-05-09T12:24:24.188Z,31.52
2023-05-09T12:26:51.083Z,31.56
2023-05-09T12:29:20.007Z,31.46
2023-05-09T12:31:47.368Z,31.76
2023-05-09T12:34:14.426Z,31.63
2023-05-09T12:36:43.936Z,31.28
2023-05-09T12:39:10.588Z,32.23
2023-05-09T12:41:53.646Z,31.91
2023-05-09T12:44:28.794Z,32.06
2023-05-09T12:47:00.036Z,32.89
2023-05-09T12:49:27.790Z,32.06
2023-05-09T12:51:56.013Z,31.96
2023-05-09T12:54:23.822Z,31.80
2023-05-09T12:56:51.369Z,32.06
2023-05-09T12:59:21.098Z,31.60
2023-05-09T13:01:53.804Z,32.89
2023-05-09T13:04:21.294Z,32.40
2023-05-09T13:06:49.303Z,32.48
2023-05-09T13:09:16.192Z,32.29
2023-05-09T13:11:42.773Z,32.77
2023-05-09T13:14:09.502Z,32.53
2023-05-09T13:16:36.402Z,32.81
2023-05-09T13:19:04.391Z,33.28
2023-05-09T13:21:31.023Z,33.80
2023-05-09T13:23:57.594Z,34.00
2023-05-09T13:26:24.265Z,33.94
2023-05-09T13:28:50.870Z,33.01
2023-05-09T13:31:18.204Z,33.48
2023-05-09T13:33:45.046Z,32.66
2023-05-09T13:36:13.079Z,33.42
2023-05-09T13:38:39.734Z,33.29
2023-05-09T13:41:06.328Z,34.06
2023-05-09T13:43:33.116Z,36.74
2023-05-09T13:45:59.703Z,40.73
2023-05-09T13:48:26.337Z,44.01
2023-05-09T13:50:52.872Z,47.27
2023-05-09T13:53:20.780Z,48.33
2023-05-09T13:55:47.391Z,49.23
2023-05-09T13:58:14.048Z,49.49
2023-05-09T14:00:40.554Z,50.34
2023-05-09T14:03:07.541Z,50.90
2023-05-09T14:05:34.526Z,51.90
2023-05-09T14:08:01.058Z,52.14
2023-05-09T14:10:29.000Z,51.75
2023-05-09T14:12:55.598Z,53.00
2023-05-09T14:15:22.418Z,54.91
2023-05-09T14:17:49.020Z,56.22
2023-05-09T14:20:15.783Z,56.82
2023-05-09T14:22:42.603Z,57.15
2023-05-09T14:25:09.484Z,56.61
2023-05-09T14:27:37.462Z,56.16
2023-05-09T14:30:04.536Z,56.49
2023-05-09T14:32:31.157Z,56.16
2023-05-09T14:34:57.733Z,58.69
2023-05-09T14:37:24.326Z,57.91
2023-05-09T14:39:50.904Z,58.07
2023-05-09T14:42:17.636Z,58.01
2023-05-09T14:44:45.563Z,58.04
2023-05-09T14:47:12.434Z,58.46
2023-05-09T14:49:39.037Z,58.61
2023-05-09T14:52:05.954Z,59.15
2023-05-09T14:54:32.535Z,59.89
2023-05-09T14:56:59.165Z,60.55
2023-05-09T14:59:25.778Z,61.41
2023-05-09T15:01:53.640Z,62.26
2023-05-09T15:04:20.221Z,62.03
2023-05-09T15:06:46.824Z,62.42
2023-05-09T15:09:13.840Z,62.92
2023-05-09T15:11:47.832Z,64.52
2023-05-09T15:14:15.385Z,64.75
2023-05-09T15:16:42.072Z,64.37
2023-05-09T15:19:10.129Z,63.90
2023-05-09T15:21:36.781Z,63.49
2023-05-09T15:24:04.730Z,63.56
2023-05-09T15:26:31.496Z,63.61
2023-05-09T15:28:58.013Z,63.25
2023-05-09T15:31:24.714Z,63.19
2023-05-09T15:33:51.350Z,62.81
2023-05-09T15:36:19.312Z,62.02
2023-05-09T15:38:45.883Z,62.08
2023-05-09T15:41:12.505Z,62.69
2023-05-09T15:43:39.071Z,62.43
2023-05-09T15:46:05.721Z,62.92
2023-05-09T15:48:32.263Z,62.44
2023-05-09T15:50:58.986Z,61.72
2023-05-09T15:53:26.965Z,61.12
2023-05-09T15:55:53.617Z,61.46
2023-05-09T15:58:20.187Z,61.90
2023-05-09T16:00:46.927Z,62.25
2023-05-09T16:03:13.888Z,61.82
2023-05-09T16:05:40.519Z,62.15
2023-05-09T16:08:07.081Z,62.52
2023-05-09T16:10:35.123Z,62.27
2023-05-09T16:13:01.767Z,62.56
2023-05-09T16:15:28.608Z,62.94
2023-05-09T16:17:55.133Z,62.00
2023-05-09T16:20:22.050Z,62.75
2023-05-09T16:22:48.603Z,63.10
2023-05-09T16:25:16.443Z,62.96
2023-05-09T16:27:44.407Z,62.08
2023-05-09T16:30:11.867Z,63.27
2023-05-09T16:32:38.472Z,62.94
2023-05-09T16:35:06.293Z,62.43
2023-05-09T16:37:34.162Z,62.62
2023-05-09T16:40:02.242Z,63.16
2023-05-09T16:42:28.878Z,63.82
2023-05-09T16:44:57.515Z,63.39
2023-05-09T16:47:24.691Z,63.11
2023-05-09T16:49:51.401Z,63.33
2023-05-09T16:52:17.988Z,63.50
2023-05-09T16:54:44.574Z,63.34
2023-05-09T16:57:11.400Z,63.10
2023-05-09T16:59:38.002Z,63.90
2023-05-09T17:02:06.490Z,63.59
2023-05-09T17:04:33.894Z,63.77
2023-05-09T17:07:01.886Z,63.34
2023-05-09T17:09:28.453Z,63.13
2023-05-09T17:11:55.062Z,63.42
2023-05-09T17:14:21.626Z,64.36
2023-05-09T17:16:48.249Z,64.79
2023-05-09T17:19:16.599Z,65.37
2023-05-09T17:21:43.162Z,65.15
2023-05-09T17:24:09.913Z,66.67
2023-05-09T17:26:36.571Z,67.22
2023-05-09T17:29:14.227Z,68.46
2023-05-09T17:31:41.083Z,68.30
2023-05-09T17:34:07.642Z,67.81
2023-05-09T17:36:35.584Z,68.07
2023-05-09T17:39:02.144Z,68.47
2023-05-09T17:41:28.727Z,68.04
2023-05-09T17:43:55.297Z,68.65
2023-05-09T17:46:22.044Z,68.05
2023-05-09T17:48:48.672Z,68.61
2023-05-09T17:51:15.327Z,68.28
2023-05-09T17:53:43.326Z,68.81
2023-05-09T17:56:09.950Z,68.28
2023-05-09T17:58:36.503Z,68.11
2023-05-09T18:01:03.335Z,68.75
2023-05-09T18:03:29.947Z,68.60
2023-05-09T18:06:02.125Z,68.28
2023-05-09T18:08:28.707Z,68.58
2023-05-09T18:10:57.687Z,69.05
2023-05-09T18:13:24.559Z,68.73
2023-05-09T18:15:51.395Z,68.31
2023-05-09T18:18:18.004Z,68.42
2023-05-09T18:20:44.656Z,68.15
2023-05-09T18:23:11.379Z,68.54
2023-05-09T18:25:37.976Z,68.63
2023-05-09T18:28:06.220Z,68.59
2023-05-09T18:30:32.775Z,68.60
2023-05-09T18:32:59.684Z,68.44
2023-05-09T18:35:26.366Z,68.99
2023-05-09T18:37:52.961Z,68.89
2023-05-09T18:40:19.702Z,68.53
2023-05-09T18:42:46.292Z,68.52
2023-05-09T18:45:14.463Z,68.83
2023-05-09T18:47:41.028Z,68.78
2023-05-09T18:50:08.668Z,68.48
2023-05-09T18:52:35.198Z,68.44
2023-05-09T18:55:01.738Z,68.42
2023-05-09T18:57:28.424Z,68.74
2023-05-09T18:59:55.043Z,68.25
2023-05-09T19:02:23.088Z,68.31
2023-05-09T19:04:49.646Z,68.63
2023-05-09T19:07:16.548Z,68.27
2023-05-09T19:09:43.157Z,68.55
2023-05-09T19:12:09.735Z,67.83
2023-05-09T19:14:36.322Z,68.05
2023-05-09T19:17:03.107Z,67.92
2023-05-09T19:19:31.222Z,68.11
2023-05-09T19:21:57.789Z,68.40
2023-05-09T19:24:24.889Z,68.60
2023-05-09T19:26:51.483Z,68.63
2023-05-09T19:29:18.142Z,68.65
2023-05-09T19:31:44.859Z,68.99
2023-05-09T19:34:11.517Z,68.49
2023-05-09T19:36:39.442Z,68.27
2023-05-09T19:39:05.943Z,68.22
2023-05-09T19:41:32.503Z,68.83
2023-05-09T19:43:59.138Z,68.95
2023-05-09T19:46:25.805Z,68.81
2023-05-09T19:48:52.354Z,68.79
2023-05-09T19:51:19.040Z,68.87
2023-05-09T19:53:47.100Z,68.91
2023-05-09T19:56:13.765Z,68.68
2023-05-09T19:58:40.440Z,68.68
2023-05-09T20:01:07.248Z,68.67
2023-05-09T20:03:34.180Z,68.75
2023-05-09T20:06:00.847Z,69.21
2023-05-09T20:08:27.484Z,70.17
2023-05-09T20:10:55.396Z,70.46
2023-05-09T20:13:22.022Z,70.25
2023-05-09T20:15:48.804Z,70.71
2023-05-09T20:18:15.394Z,69.86
2023-05-09T20:20:42.621Z,69.17
2023-05-09T20:23:09.213Z,69.07
2023-05-09T20:25:35.819Z,68.81
2023-05-09T20:28:03.788Z,69.02
2023-05-09T20:30:30.427Z,69.28
2023-05-09T20:32:57.058Z,69.71
2023-05-09T20:35:23.932Z,69.68
2023-05-09T20:37:50.853Z,69.50
2023-05-09T20:40:17.741Z,69.56
2023-05-09T20:42:44.448Z,69.90
2023-05-09T20:45:12.445Z,70.08
2023-05-09T20:47:39.167Z,69.22
2023-05-09T20:50:06.989Z,69.23
2023-05-09T20:52:33.592Z,69.44
2023-05-09T20:55:00.192Z,69.33
2023-05-09T20:57:26.822Z,69.58
2023-05-09T20:59:53.425Z,69.31
2023-05-09T21:02:21.463Z,69.41
2023-05-09T21:04:48.079Z,69.45
2023-05-09T21:07:14.639Z,69.69
2023-05-09T21:09:41.343Z,70.08
2023-05-09T21:12:09.265Z,69.45
2023-05-09T21:14:37.663Z,69.81
2023-05-09T21:17:04.415Z,69.77
2023-05-09T21:19:32.366Z,69.77
2023-05-09T21:21:58.947Z,69.68
2023-05-09T21:24:25.637Z,69.25
2023-05-09T21:26:52.155Z,69.34
2023-05-09T21:29:19.267Z,69.64
2023-05-09T21:31:45.847Z,69.72
2023-05-09T21:34:12.749Z,69.72
2023-05-09T21:36:41.098Z,70.23
2023-05-09T21:39:08.169Z,70.04
2023-05-09T21:41:34.950Z,69.58
2023-05-09T21:44:01.541Z,70.31
2023-05-09T21:46:28.166Z,69.92
2023-05-09T21:49:12.016Z,70.38
2023-05-09T21:51:38.773Z,70.36
2023-05-09T21:54:06.674Z,70.06
2023-05-09T21:56:33.202Z,70.14
2023-05-09T21:58:59.900Z,70.71
2023-05-09T22:01:26.501Z,70.80
2023-05-09T22:03:53.168Z,70.14
2023-05-09T22:06:19.880Z,70.57
2023-05-09T22:08:46.457Z,70.46
2023-05-09T22:11:15.201Z,69.95
2023-05-09T22:13:41.987Z,70.02
2023-05-09T22:16:08.581Z,70.69
2023-05-09T22:18:35.401Z,70.52
2023-05-09T22:21:01.960Z,70.67
2023-05-09T22:23:28.547Z,70.05
2023-05-09T22:25:55.363Z,70.82
2023-05-09T22:28:23.291Z,70.86
2023-05-09T22:30:49.838Z,70.59
2023-05-09T22:33:16.509Z,71.05
2023-05-09T22:35:43.213Z,70.55
2023-05-09T22:38:09.804Z,70.28
2023-05-09T22:40:36.726Z,70.62
2023-05-09T22:43:03.361Z,70.38
2023-05-09T22:45:31.333Z,70.23
2023-05-09T22:47:58.122Z,70.80
2023-05-09T22:50:24.740Z,70.67
2023-05-09T22:52:51.509Z,70.60
2023-05-09T22:55:18.100Z,71.04
2023-05-09T22:57:44.669Z,70.61
2023-05-09T23:00:12.416Z,70.52
2023-05-09T23:02:40.364Z,70.40
2023-05-09T23:05:07.655Z,70.61
2023-05-09T23:07:34.709Z,70.89
2023-05-09T23:10:01.553Z,71.20
2023-05-09T23:12:28.128Z,71.11
2023-05-09T23:14:54.631Z,71.29
2023-05-09T23:17:21.450Z,70.73
2023-05-09T23:19:49.494Z,70.47
2023-05-09T23:22:16.395Z,70.81
2023-05-09T23:24:42.986Z,71.42
2023-05-09T23:27:09.712Z,71.56
2023-05-09T23:29:36.331Z,70.76
2023-05-09T23:32:02.984Z,71.28
2023-05-09T23:34:29.742Z,71.23
2023-05-09T23:36:57.679Z,71.27
2023-05-09T23:39:24.323Z,71.24
2023-05-09T23:41:51.010Z,70.77
2023-05-09T23:44:17.566Z,72.03
2023-05-09T23:46:44.165Z,71.61
2023-05-09T23:49:10.804Z,71.38
2023-05-09T23:51:38.066Z,71.82
2023-05-09T23:54:06.233Z,71.51
2023-05-09T23:56:32.845Z,71.57
2023-05-09T23:58:59.523Z,71.49
